AirNav   Get $300 off a Bose A20
 
 780 users online  

73II Nulltown Wingnuts Ultralight Flightpark
Connersville, Indiana, USA

GOING TO CONNERSVILLE?


FAA INFORMATION EFFECTIVE 28 MARCH 2019

Location

FAA Identifier: 73II
Lat/Long: 39-34-18.0000N / 085-09-31.0000W
39-34.300000N / 085-09.516667W
39.5716667 / -85.1586111
(estimated)
Elevation: 765 ft. / 233 m (estimated)
Variation: 03W (1990)
From city: 5 miles S of CONNERSVILLE, IN
Time zone: UTC -4 (UTC -5 during Standard Time)
Zip code: 47331

Ultralight Flight Park Operations

Ultralight Flight Park use: Private use. Permission required prior to landing
Activation date: 11/1994
Control tower: no
ARTCC: INDIANAPOLIS CENTER
FSS: TERRE HAUTE FLIGHT SERVICE STATION
Attendance: UNATNDD
Wind indicator: yes
Segmented circle: no

Ultralight Flight Park Communications

WX AWOS-3 at CEV (8 nm N): 118.325 (765-827-6649)
WX AWOS-3 at HLB (14 nm S): 122.725 (812-933-0108)
WX AWOS-3PT at OXD (18 nm E): 118.625 (513-273-2032)
WX AWOS-3 at RID (18 nm NE): 121.225 (765-983-1903)

Nearby radio navigation aids

VOR radial/distance  VOR name  Freq  Var
SHBr096/31.0SHELBYVILLE VOR/DME112.0001E
CVGr332/39.5CINCINNATI VORTAC117.3004W

 
NDB name  Hdg/Dist  Freq  Var  ID
PNTHR190/12.422704WSQ ... --.-
BATESVILLE024/14.325405WHLB .... .-.. -...
NEW CASTLE164/19.938506WUWL ..- .-- .-..
HOOK FIELD282/33.223904WHKF .... -.- ..-.

Ultralight Flight Park Services

Runway Information

Runway NE/SW

Dimensions: 2000 x 60 ft. / 610 x 18 m
Surface: turf
RUNWAY NE  RUNWAY SW
Traffic pattern: leftleft
Obstructions: none60 ft. trees, 800 ft. from runway

Ultralight Flight Park Ownership and Management from official FAA records

Ownership: Privately-owned
Owner: NULLTOWN WINGNUTS
BOX 1025 W CR 480S
CONNERSVILLE, IN 47331
Phone 317-825-6898
Manager: TIM LOHREY
9111 WHITEWATER DR.
BROOKVILLE, IN 47012
Phone 513-520-8683
HOME: 765-687-3208

Ultralight Flight Park Operational Statistics

Aircraft based on the field: 7
Single engine airplanes: 4
Ultralights: 3
    

Instrument Procedures

There are no published instrument procedures at 73II.

Some nearby airports with instrument procedures:

KCEV - Mettel Field Airport (8 nm N)
KOXD - Miami University Airport (18 nm E)
KRID - Richmond Municipal Airport (18 nm NE)
KUWL - New Castle-Henry County Municipal Airport (20 nm NW)
I34 - Greensburg Municipal Airport (22 nm SW)
 
Loc | Ops | Rwys | IFR | FBO | Links
Com | Nav | Svcs | Stats | Notes
Area around 73II (Nulltown Wingnuts Ultralight Flightpark)
 
Road maps at: MapQuest Bing Google
 
Aerial photo
No photo
 
Sectional chart

 
Airport distance calculator
Flying to Nulltown Wingnuts Ultralight Flightpark? Find the distance to fly.

From to 73II

Sunrise and sunset
Times for 22-Apr-2019
 Local
(UTC-4)
 Zulu
(UTC)
Morning civil twilight06:2610:26
Sunrise06:5410:54
Sunset20:2400:24
Evening civil twilight20:5200:52

Current date and time
Zulu (UTC)  23-Apr-2019 03:28:17
Local (UTC-4)  22-Apr-2019 23:28:17
 
METAR
KHLB 
14nm S 
230315Z AUTO 17009KT 10SM CLR 17/08 A3003 RMK A01
KOXD 
18nm E 
230316Z AUTO 16008KT 10SM CLR 17/09 A3005 RMK AO2 T01650086
KRID 
18nm NE 
230315Z AUTO 15010KT 10SM CLR 12/11 A3005 RMK AO2
KI67 
26nm SE 
230315Z AUTO 00000KT 10SM CLR 16/07 A3004 RMK AO1
TAF
KCVG 
39nm SE 
222101Z 2221/2324 17007KT P6SM SCT150 BKN250 FM231200 20010KT P6SM BKN150 FM231500 23012G22KT P6SM VCSH BKN050 FM231800 25012G23KT P6SM -SHRA VCTS OVC035CB TEMPO 2319/2321 5SM -TSRA FM232300 29011G20KT P6SM OVC035
KLUK 
45nm SE 
221739Z 2218/2318 19005KT P6SM SCT150 BKN250 FM231200 22010KT P6SM BKN150 FM231500 23012G22KT P6SM VCSH BKN050
KDAY 
48nm NE 
221739Z 2218/2318 17009KT P6SM FEW150 SCT250 FM231200 21013KT P6SM BKN090 FM231500 23015G23KT P6SM -SHRA BKN025
NOTAMs
Click for the latest NOTAMs
NOTAMs are issued by the DoD/FAA and will open in a separate window not controlled by AirNav.

 

 
 

Would you like to see your business listed on this page?

 If your business provides an interesting product or service to pilots, flight crews, aircraft, or users of the Nulltown Wingnuts Ultralight Flightpark, you should consider listing it here.  To start the listing process, click on the button below
 
Add a business
 

Other Pages about Nulltown Wingnuts Ultralight Flightpark

Update a link
 
Copyright © AirNav, LLC. All rights reserved. Privacy Policy  Contact